TimeEST,TemperatureF,Dew PointF,Humidity,Sea Level PressureIn,VisibilityMPH,Wind Direction,Wind SpeedMPH,Gust SpeedMPH,PrecipitationIn,Events,Conditions,WindDirDegrees,DateUTC
12:51 AM,39.0,26.1,60,29.93,10.0,NNE,23.0,33.4,0.00,,Overcast,20,2013-03-07 05:51:00
1:51 AM,37.9,27.0,65,29.94,10.0,North,21.9,32.2,N/A,,Overcast,10,2013-03-07 06:51:00
2:51 AM,37.9,26.1,62,29.92,10.0,North,25.3,32.2,N/A,,Overcast,10,2013-03-07 07:51:00
3:51 AM,37.9,26.1,62,29.94,10.0,North,18.4,26.5,N/A,,Overcast,10,2013-03-07 08:51:00
4:51 AM,37.0,27.0,67,29.96,10.0,North,21.9,26.5,N/A,,Overcast,10,2013-03-07 09:51:00
5:51 AM,37.0,26.1,65,29.98,10.0,North,23.0,29.9,0.00,,Overcast,360,2013-03-07 10:51:00
6:51 AM,37.0,25.0,62,29.99,10.0,North,23.0,-,0.00,Snow,Light Snow,10,2013-03-07 11:51:00
7:34 AM,35.6,26.6,70,30.00,2.0,North,27.6,35.7,0.00,Snow,Light Snow,10,2013-03-07 12:34:00
7:51 AM,35.1,28.0,76,30.01,2.0,North,24.2,33.4,0.00,Snow,Light Snow,10,2013-03-07 12:51:00
8:00 AM,35.6,28.4,75,30.01,6.0,North,20.7,-,0.00,Snow,Light Snow,10,2013-03-07 13:00:00
8:17 AM,35.6,26.6,70,30.01,7.0,North,20.7,33.4,0.00,Snow,Light Snow,360,2013-03-07 13:17:00
8:34 AM,35.6,28.4,75,30.02,5.0,North,24.2,32.2,0.00,Snow,Light Snow,360,2013-03-07 13:34:00
8:51 AM,36.0,28.9,76,30.02,5.0,North,23.0,28.8,0.00,Snow,Light Snow,350,2013-03-07 13:51:00
9:51 AM,37.9,28.9,70,30.02,8.0,North,25.3,35.7,0.00,Snow,Light Snow,350,2013-03-07 14:51:00
10:39 AM,39.2,28.4,65,30.03,9.0,North,24.2,31.1,0.00,,Unknown,10,2013-03-07 15:39:00
10:51 AM,39.0,28.0,65,30.03,9.0,North,18.4,-,0.00,,Unknown,360,2013-03-07 15:51:00
11:41 AM,39.2,28.4,65,30.03,9.0,North,20.7,25.3,0.00,,Unknown,360,2013-03-07 16:41:00
11:51 AM,39.0,30.0,70,30.03,10.0,North,18.4,25.3,0.00,,Unknown,350,2013-03-07 16:51:00
12:00 PM,39.2,30.2,70,30.03,9.0,NNW,17.3,26.5,0.00,,Unknown,340,2013-03-07 17:00:00
12:51 PM,39.0,33.1,79,30.03,8.0,North,17.3,-,0.00,Rain,Light Rain,360,2013-03-07 17:51:00
1:51 PM,37.9,33.1,83,30.03,9.0,NNW,17.3,26.5,0.00,Rain,Light Rain,340,2013-03-07 18:51:00
2:51 PM,37.9,34.0,86,30.04,9.0,NNW,19.6,24.2,0.01,Rain,Light Rain,330,2013-03-07 19:51:00
3:46 PM,37.4,35.6,93,30.05,6.0,North,16.1,-,0.02,Rain-Snow,Light Rain,350,2013-03-07 20:46:00
3:51 PM,37.9,34.0,86,30.05,6.0,NNW,12.7,20.7,0.02,Rain-Snow,Light Rain,340,2013-03-07 20:51:00
4:51 PM,37.0,34.0,89,30.06,6.0,NNW,19.6,25.3,0.03,Rain-Snow,Light Rain,340,2013-03-07 21:51:00
5:51 PM,37.0,33.1,86,30.08,7.0,NNW,18.4,24.2,0.02,Rain-Snow,Light Rain,340,2013-03-07 22:51:00
6:51 PM,36.0,33.1,89,30.09,7.0,NNW,13.8,-,0.02,Rain-Snow,Light Rain,340,2013-03-07 23:51:00
7:17 PM,35.6,33.8,93,30.09,6.0,North,16.1,21.9,0.00,Rain-Snow,Light Rain,350,2013-03-08 00:17:00
7:51 PM,36.0,32.0,86,30.09,6.0,NNW,17.3,23.0,0.01,Rain-Snow,Light Snow,340,2013-03-08 00:51:00
8:51 PM,35.1,32.0,89,30.08,6.0,NNW,16.1,-,0.00,Rain-Snow,Light Snow,340,2013-03-08 01:51:00
9:51 PM,35.1,32.0,89,30.07,6.0,North,13.8,-,0.01,Snow,Light Snow,350,2013-03-08 02:51:00
10:29 PM,33.8,32.0,93,30.07,2.0,NNW,11.5,-,0.02,Snow,Light Snow,340,2013-03-08 03:29:00
10:51 PM,34.0,32.0,92,30.07,2.0,NNW,9.2,-,0.04,Snow,Light Snow,340,2013-03-08 03:51:00
11:51 PM,34.0,32.0,92,30.06,2.0,NNW,10.4,-,0.04,Snow,Light Snow,330,2013-03-08 04:51:00